Time;durP1;ratioP1;P1;durP2;ratioP2;P2;SDS_P1;SDS_P2;PMS_P1;PMS_P2;Temp;Humidity;BMP_temperature;BMP_pressure;BME280_temperature;BME280_humidity;BME280_pressure;Samples;Min_cycle;Max_cycle;Signal;HPM_P1;HPM_P2
2020/12/14 00:02:24;;;;;;;11.35;7.47;;;2.10;98.00;;;;;;5034872;28;20083;-70
2020/12/14 00:04:49;;;;;;;11.57;7.95;;;2.10;98.00;;;;;;5036796;28;20029;-70
2020/12/14 00:07:15;;;;;;;10.23;7.20;;;2.20;98.00;;;;;;5035656;28;20043;-71
2020/12/14 00:09:41;;;;;;;13.13;8.57;;;2.30;98.00;;;;;;5032475;28;20029;-70
2020/12/14 00:12:07;;;;;;;13.65;7.70;;;2.30;98.00;;;;;;5035443;28;20080;-70
2020/12/14 00:14:32;;;;;;;12.15;8.32;;;2.30;98.00;;;;;;5035781;28;20029;-70
2020/12/14 00:16:58;;;;;;;11.82;7.78;;;2.40;98.00;;;;;;5033463;28;20064;-70
2020/12/14 00:19:24;;;;;;;10.50;7.82;;;2.40;98.00;;;;;;5034271;28;20037;-70
2020/12/14 00:21:53;;;;;;;9.98;7.00;;;2.40;98.00;;;;;;5036885;28;20026;-70
2020/12/14 00:24:20;;;;;;;12.25;8.00;;;2.30;98.00;;;;;;5029854;28;20025;-70
2020/12/14 00:26:46;;;;;;;9.98;7.75;;;2.30;98.00;;;;;;5034824;28;20373;-70
2020/12/14 00:29:11;;;;;;;10.40;7.43;;;2.30;98.00;;;;;;5034167;28;20060;-70
2020/12/14 00:31:37;;;;;;;13.40;7.85;;;2.30;98.00;;;;;;5034829;28;20310;-70
2020/12/14 00:34:03;;;;;;;13.30;8.32;;;2.30;98.00;;;;;;5036180;28;20028;-70
2020/12/14 00:36:28;;;;;;;12.55;8.27;;;2.30;98.00;;;;;;5036180;28;20102;-70
2020/12/14 00:38:54;;;;;;;11.38;8.13;;;2.40;98.00;;;;;;5034692;28;20029;-70
2020/12/14 00:41:20;;;;;;;10.63;7.57;;;2.40;98.00;;;;;;5036459;28;20033;-70
2020/12/14 00:43:48;;;;;;;10.65;7.55;;;2.40;98.00;;;;;;5034676;28;20370;-71
2020/12/14 00:46:14;;;;;;;10.88;7.93;;;2.40;98.00;;;;;;5034466;28;20473;-70
2020/12/14 00:48:43;;;;;;;9.88;7.38;;;2.30;98.00;;;;;;5035266;28;20045;-70
2020/12/14 00:51:09;;;;;;;11.20;7.45;;;2.30;98.00;;;;;;5036331;28;20155;-70
2020/12/14 00:53:36;;;;;;;11.82;7.50;;;2.30;98.00;;;;;;5035440;28;20025;-70
2020/12/14 00:56:02;;;;;;;11.00;7.25;;;2.30;98.00;;;;;;5035551;28;20030;-70
2020/12/14 00:58:28;;;;;;;10.35;7.28;;;2.30;98.00;;;;;;5035032;28;20030;-70
2020/12/14 01:00:54;;;;;;;11.75;8.07;;;2.30;98.00;;;;;;5034088;28;20033;-70
2020/12/14 01:03:21;;;;;;;11.27;7.60;;;2.40;98.00;;;;;;5034885;28;20025;-70
2020/12/14 01:05:47;;;;;;;11.68;7.65;;;2.40;98.00;;;;;;5035937;28;20033;-70
2020/12/14 01:08:13;;;;;;;10.90;7.40;;;2.40;98.00;;;;;;5034999;28;20102;-70
2020/12/14 01:10:38;;;;;;;10.90;7.60;;;2.40;98.00;;;;;;5034679;28;20034;-70
2020/12/14 01:13:04;;;;;;;9.45;6.90;;;2.40;98.00;;;;;;5035227;28;20096;-70
2020/12/14 01:15:29;;;;;;;8.82;6.22;;;2.30;98.00;;;;;;5034833;28;20028;-70
2020/12/14 01:17:55;;;;;;;9.93;6.97;;;2.30;98.00;;;;;;5032490;28;20072;-70
2020/12/14 01:20:21;;;;;;;10.38;6.25;;;2.20;98.00;;;;;;5034807;28;20025;-70
2020/12/14 01:22:46;;;;;;;9.10;6.53;;;2.20;98.00;;;;;;5035126;28;20480;-70
2020/12/14 01:25:12;;;;;;;9.52;6.57;;;2.20;98.00;;;;;;5035000;28;20079;-70
2020/12/14 01:27:37;;;;;;;9.45;6.20;;;2.20;98.00;;;;;;5034455;28;20030;-70
2020/12/14 01:30:04;;;;;;;9.27;5.75;;;2.20;98.00;;;;;;5035266;28;20089;-70
2020/12/14 01:32:29;;;;;;;9.52;6.18;;;2.20;98.00;;;;;;5033522;28;20033;-70
2020/12/14 01:34:55;;;;;;;10.50;6.05;;;2.30;98.00;;;;;;5035009;28;20038;-70
2020/12/14 01:37:20;;;;;;;9.73;6.53;;;2.30;98.00;;;;;;5035501;28;20350;-70
2020/12/14 01:39:46;;;;;;;8.32;5.97;;;2.30;98.00;;;;;;5034917;28;20410;-70
2020/12/14 01:42:12;;;;;;;9.52;6.82;;;2.30;98.00;;;;;;5033838;28;20116;-70
2020/12/14 01:44:37;;;;;;;9.48;7.15;;;2.30;98.00;;;;;;5033708;28;20030;-70
2020/12/14 01:47:03;;;;;;;10.10;7.05;;;2.30;98.00;;;;;;5034033;28;20026;-70
2020/12/14 01:49:35;;;;;;;7.97;6.03;;;2.30;98.00;;;;;;5032515;28;20041;-71
2020/12/14 01:52:01;;;;;;;8.18;6.18;;;2.30;98.00;;;;;;5035008;28;20033;-70
2020/12/14 01:54:34;;;;;;;9.73;7.03;;;2.40;98.00;;;;;;5033582;28;20017;-70
2020/12/14 01:57:01;;;;;;;9.77;5.80;;;2.40;98.00;;;;;;5033955;28;20030;-70
2020/12/14 01:59:33;;;;;;;8.48;6.13;;;2.40;98.00;;;;;;5033835;28;20029;-70
2020/12/14 02:01:59;;;;;;;9.52;6.80;;;2.30;98.00;;;;;;5032598;28;20087;-69
2020/12/14 02:04:27;;;;;;;9.27;6.70;;;2.30;98.00;;;;;;5033988;28;20034;-69
2020/12/14 02:06:53;;;;;;;10.60;7.20;;;2.20;98.00;;;;;;5034333;28;20032;-70
2020/12/14 02:09:18;;;;;;;10.13;6.60;;;2.20;98.00;;;;;;5033746;28;20486;-71
2020/12/14 02:11:44;;;;;;;9.55;6.88;;;2.20;98.00;;;;;;5034381;28;20398;-70
2020/12/14 02:14:10;;;;;;;9.15;6.57;;;2.10;98.00;;;;;;5033585;28;20037;-70
2020/12/14 02:16:35;;;;;;;10.32;7.30;;;2.10;98.00;;;;;;5032565;28;20026;-70
2020/12/14 02:19:01;;;;;;;9.48;6.57;;;2.10;98.00;;;;;;5033449;28;20051;-70
2020/12/14 02:21:26;;;;;;;8.75;5.90;;;2.00;98.00;;;;;;5034727;28;20083;-70
2020/12/14 02:23:58;;;;;;;10.10;6.95;;;2.00;98.00;;;;;;5034015;28;20029;-70
2020/12/14 02:26:23;;;;;;;8.73;5.95;;;2.00;98.00;;;;;;5034436;28;20485;-70
2020/12/14 02:28:49;;;;;;;9.20;6.43;;;2.00;98.00;;;;;;5033598;28;20151;-70
2020/12/14 02:31:14;;;;;;;7.93;5.72;;;2.00;98.00;;;;;;5035220;28;20057;-70
2020/12/14 02:33:40;;;;;;;9.85;5.90;;;2.00;98.00;;;;;;5038752;28;20045;-70
2020/12/14 02:36:06;;;;;;;8.55;5.20;;;2.00;98.00;;;;;;5037916;28;20369;-70
2020/12/14 02:38:31;;;;;;;8.45;5.72;;;2.10;98.00;;;;;;5037074;28;20037;-70
2020/12/14 02:40:57;;;;;;;9.00;5.82;;;2.10;98.00;;;;;;5037666;28;20052;-70
2020/12/14 02:43:23;;;;;;;8.02;5.55;;;2.10;98.00;;;;;;5037996;28;20096;-70
2020/12/14 02:45:48;;;;;;;9.52;5.82;;;2.10;98.00;;;;;;5037527;28;20048;-70
2020/12/14 02:48:14;;;;;;;7.72;5.32;;;2.10;98.00;;;;;;5040387;28;20037;-70
2020/12/14 02:50:40;;;;;;;7.85;5.45;;;2.10;98.00;;;;;;5043889;28;20487;-69
2020/12/14 02:53:05;;;;;;;10.13;5.20;;;2.00;98.00;;;;;;5052659;28;20021;-70
2020/12/14 02:55:31;;;;;;;7.45;5.35;;;2.00;98.00;;;;;;5038449;28;20108;-70
2020/12/14 02:57:57;;;;;;;8.13;5.22;;;2.00;98.00;;;;;;5037391;28;20034;-70
2020/12/14 03:00:23;;;;;;;7.45;4.93;;;2.10;98.00;;;;;;5037568;28;20029;-71
2020/12/14 03:02:51;;;;;;;6.88;4.30;;;2.10;98.00;;;;;;5037358;28;20032;-70
2020/12/14 03:05:16;;;;;;;7.70;5.22;;;2.20;98.00;;;;;;5037423;28;20029;-70
2020/12/14 03:07:42;;;;;;;8.40;4.53;;;2.20;98.00;;;;;;5037341;28;20025;-70
2020/12/14 03:10:08;;;;;;;6.10;4.13;;;2.20;98.00;;;;;;5037385;28;20021;-70
2020/12/14 03:12:34;;;;;;;7.30;4.30;;;2.20;98.00;;;;;;5038295;28;20029;-70
2020/12/14 03:15:00;;;;;;;7.07;4.80;;;2.10;98.00;;;;;;5036667;28;20025;-70
2020/12/14 03:17:26;;;;;;;6.30;4.20;;;2.00;98.00;;;;;;5036811;28;20468;-71
2020/12/14 03:19:52;;;;;;;9.07;5.43;;;2.00;98.00;;;;;;5037703;28;20494;-70
2020/12/14 03:22:18;;;;;;;7.65;4.55;;;2.00;98.00;;;;;;5037696;28;20112;-70
2020/12/14 03:24:43;;;;;;;7.22;4.75;;;1.90;98.00;;;;;;5035326;28;20026;-70
2020/12/14 03:27:12;;;;;;;8.88;6.03;;;1.80;98.00;;;;;;5037254;28;20147;-70
2020/12/14 03:29:37;;;;;;;7.50;4.95;;;1.70;98.00;;;;;;5035961;28;20067;-71
2020/12/14 03:32:03;;;;;;;7.28;4.85;;;1.60;98.00;;;;;;5036685;28;20061;-70
2020/12/14 03:34:29;;;;;;;9.63;5.13;;;1.60;98.00;;;;;;5037334;28;20393;-70
2020/12/14 03:36:57;;;;;;;7.53;4.60;;;1.70;98.00;;;;;;5036035;28;20021;-70
2020/12/14 03:39:22;;;;;;;10.40;5.65;;;1.90;98.00;;;;;;5035793;28;20029;-70
2020/12/14 03:41:52;;;;;;;7.40;5.20;;;1.90;98.00;;;;;;5036251;28;20025;-70
2020/12/14 03:44:18;;;;;;;6.80;4.45;;;1.90;98.00;;;;;;5035613;28;20326;-70
2020/12/14 03:46:43;;;;;;;6.30;4.57;;;1.90;98.00;;;;;;5035307;28;20033;-70
2020/12/14 03:49:12;;;;;;;8.35;5.47;;;1.90;98.00;;;;;;5036069;28;20064;-70
2020/12/14 03:51:37;;;;;;;8.55;4.28;;;1.90;98.00;;;;;;5036839;28;20124;-70
2020/12/14 03:54:03;;;;;;;10.30;4.68;;;1.90;98.00;;;;;;5036626;28;20096;-70
2020/12/14 03:56:29;;;;;;;6.53;4.35;;;1.90;98.00;;;;;;5037063;28;20129;-70
2020/12/14 03:58:55;;;;;;;6.97;4.53;;;1.90;98.00;;;;;;5035654;28;20076;-70
2020/12/14 04:01:29;;;;;;;7.00;4.53;;;1.90;98.00;;;;;;5033563;28;20381;-70
2020/12/14 04:03:55;;;;;;;6.60;3.80;;;1.90;98.00;;;;;;5036430;28;20425;-70
2020/12/14 04:06:23;;;;;;;5.75;3.85;;;2.00;98.00;;;;;;5036936;28;20033;-70
2020/12/14 04:08:49;;;;;;;6.18;3.90;;;2.00;98.00;;;;;;5035280;28;20030;-70
2020/12/14 04:11:16;;;;;;;6.22;4.35;;;2.10;98.00;;;;;;5036695;28;20029;-70
2020/12/14 04:13:42;;;;;;;7.22;4.82;;;2.20;98.00;;;;;;5035149;28;20022;-71
2020/12/14 04:16:09;;;;;;;6.90;4.25;;;2.30;98.00;;;;;;5035175;28;20496;-70
2020/12/14 04:18:35;;;;;;;6.22;4.40;;;2.20;98.00;;;;;;5035713;28;20426;-70
2020/12/14 04:21:02;;;;;;;8.57;4.20;;;2.20;98.00;;;;;;5036367;28;20365;-70
2020/12/14 04:23:27;;;;;;;7.57;4.97;;;2.20;98.00;;;;;;5035823;28;20108;-70
2020/12/14 04:25:56;;;;;;;9.05;5.18;;;2.30;98.00;;;;;;5036408;28;20116;-70
2020/12/14 04:28:23;;;;;;;7.90;4.30;;;2.30;98.00;;;;;;5035107;28;20316;-70
2020/12/14 04:30:48;;;;;;;6.32;3.92;;;2.20;98.00;;;;;;5034833;28;20144;-70
2020/12/14 04:33:14;;;;;;;17.85;12.25;;;2.20;98.00;;;;;;5035791;28;20100;-69
2020/12/14 04:35:40;;;;;;;6.55;4.70;;;2.30;98.00;;;;;;5035571;28;20025;-70
2020/12/14 04:38:05;;;;;;;6.22;4.00;;;2.20;98.00;;;;;;5036027;28;20080;-70
2020/12/14 04:40:31;;;;;;;5.30;3.72;;;2.20;98.00;;;;;;5036397;28;20159;-71
2020/12/14 04:42:58;;;;;;;5.95;3.92;;;2.20;98.00;;;;;;5036247;28;20368;-70
2020/12/14 04:45:28;;;;;;;6.40;4.25;;;2.20;98.00;;;;;;5035937;28;20108;-70
2020/12/14 04:47:55;;;;;;;6.75;4.18;;;2.10;98.00;;;;;;5035174;28;20672;-70
2020/12/14 04:50:23;;;;;;;6.53;4.47;;;2.10;98.00;;;;;;5033030;28;20025;-70
2020/12/14 04:52:49;;;;;;;6.65;4.53;;;1.90;98.00;;;;;;5035451;28;20075;-69
2020/12/14 04:55:20;;;;;;;6.97;4.80;;;1.60;98.00;;;;;;5035373;28;20044;-69
2020/12/14 04:57:47;;;;;;;7.55;4.82;;;1.70;98.00;;;;;;5033990;28;20064;-69
2020/12/14 05:00:13;;;;;;;7.97;4.72;;;1.70;98.00;;;;;;5036021;28;20032;-69
2020/12/14 05:02:39;;;;;;;8.52;5.03;;;1.60;98.00;;;;;;5033964;28;20030;-71
2020/12/14 05:05:09;;;;;;;8.50;4.72;;;1.50;98.00;;;;;;5035284;28;20034;-70
2020/12/14 05:07:43;;;;;;;7.93;4.78;;;1.70;98.00;;;;;;5035844;28;20580;-70
2020/12/14 05:10:09;;;;;;;6.35;4.15;;;1.80;98.00;;;;;;5018517;28;20034;-71
2020/12/14 05:12:42;;;;;;;6.95;4.15;;;2.00;98.00;;;;;;5035309;28;20045;-70
2020/12/14 05:15:23;;;;;;;6.90;4.72;;;2.20;98.00;;;;;;5032584;28;20032;-70
2020/12/14 05:17:51;;;;;;;7.07;4.32;;;2.30;98.00;;;;;;5033839;28;20033;-71
2020/12/14 05:20:19;;;;;;;6.70;4.13;;;2.30;98.00;;;;;;5034331;28;20342;-70
2020/12/14 05:22:56;;;;;;;7.15;4.45;;;2.40;98.00;;;;;;5035087;28;20025;-70
2020/12/14 05:25:21;;;;;;;6.85;3.95;;;2.30;98.00;;;;;;5034987;28;20052;-70
2020/12/14 05:27:50;;;;;;;15.63;9.75;;;2.30;98.00;;;;;;5034955;28;20115;-70
2020/12/14 05:30:16;;;;;;;13.90;8.90;;;2.20;98.00;;;;;;5035704;28;20022;-70
2020/12/14 05:32:41;;;;;;;7.97;5.20;;;2.20;98.00;;;;;;5032782;28;20299;-70
2020/12/14 05:35:13;;;;;;;9.48;5.78;;;2.30;98.00;;;;;;5034452;28;20033;-69
2020/12/14 05:37:41;;;;;;;12.00;6.40;;;2.20;98.00;;;;;;5032351;28;20032;-70
2020/12/14 05:40:10;;;;;;;8.57;5.32;;;2.10;98.00;;;;;;5034242;28;20030;-70
2020/12/14 05:42:45;;;;;;;7.35;4.57;;;2.10;98.00;;;;;;5035505;28;20108;-70
2020/12/14 05:45:12;;;;;;;9.20;6.15;;;2.10;98.00;;;;;;5034473;28;20433;-70
2020/12/14 05:47:42;;;;;;;6.63;4.70;;;2.10;98.00;;;;;;5032133;28;20045;-70
2020/12/14 05:50:09;;;;;;;8.30;5.57;;;2.20;97.70;;;;;;5035103;28;20114;-70
2020/12/14 05:52:47;;;;;;;7.97;5.00;;;2.30;97.20;;;;;;5034097;28;21710;-70
2020/12/14 05:55:18;;;;;;;10.23;6.13;;;2.40;97.20;;;;;;5035021;28;20095;-70
2020/12/14 05:57:49;;;;;;;8.40;5.45;;;2.10;98.00;;;;;;5045052;28;20187;-70
2020/12/14 06:00:16;;;;;;;8.80;5.45;;;1.90;98.00;;;;;;5035070;28;20025;-70
2020/12/14 06:02:42;;;;;;;8.43;5.55;;;1.80;98.00;;;;;;5032077;28;20415;-70
2020/12/14 06:05:09;;;;;;;10.15;5.93;;;1.70;98.00;;;;;;5032348;28;20036;-70
2020/12/14 06:07:37;;;;;;;9.68;5.65;;;1.60;98.00;;;;;;5034233;28;20033;-70
2020/12/14 06:10:11;;;;;;;9.57;5.85;;;1.60;98.00;;;;;;5034096;28;20029;-69
2020/12/14 06:12:39;;;;;;;;;;;1.50;98.00;;;;;;5034293;28;20039;-70
2020/12/14 06:15:07;;;;;;;8.35;5.63;;;1.50;98.00;;;;;;5033790;28;19913;-69
2020/12/14 06:17:34;;;;;;;7.88;4.88;;;1.40;98.00;;;;;;5033445;28;20052;-68
2020/12/14 06:20:14;;;;;;;24.75;15.77;;;1.40;98.00;;;;;;5033608;28;20056;-70
2020/12/14 06:22:46;;;;;;;15.38;9.35;;;1.30;98.00;;;;;;5029300;28;20057;-70
2020/12/14 06:25:12;;;;;;;16.63;8.13;;;1.20;98.00;;;;;;5037279;28;20105;-70
2020/12/14 06:27:39;;;;;;;10.40;6.40;;;1.10;98.00;;;;;;5034410;28;20021;-70
2020/12/14 06:30:27;;;;;;;12.10;5.93;;;1.00;98.00;;;;;;5033933;28;20028;-69
2020/12/14 06:33:08;;;;;;;8.48;5.53;;;0.90;98.00;;;;;;5030664;28;20438;-70
2020/12/14 06:35:49;;;;;;;8.20;5.57;;;0.80;98.00;;;;;;5026697;28;20334;-70
2020/12/14 06:38:39;;;;;;;12.38;8.10;;;0.70;98.00;;;;;;5033635;28;20135;-69
2020/12/14 06:41:20;;;;;;;9.38;7.00;;;0.80;98.00;;;;;;5032175;28;20433;-69
2020/12/14 06:44:03;;;;;;;10.82;6.40;;;0.70;98.00;;;;;;5034325;28;20025;-69
2020/12/14 06:46:32;;;;;;;9.77;6.43;;;0.70;98.00;;;;;;5018636;28;20044;-70
2020/12/14 06:48:59;;;;;;;9.25;6.18;;;0.60;98.00;;;;;;5028238;28;20333;-70
2020/12/14 06:51:25;;;;;;;10.05;6.40;;;0.70;98.00;;;;;;5034340;28;20445;-69
2020/12/14 06:53:54;;;;;;;12.65;6.18;;;0.80;98.00;;;;;;5034149;28;20104;-69
2020/12/14 06:56:26;;;;;;;8.82;6.43;;;0.80;98.00;;;;;;5034102;28;20418;-70
2020/12/14 06:58:52;;;;;;;10.93;6.18;;;0.90;98.00;;;;;;5034157;28;20322;-69
2020/12/14 07:01:41;;;;;;;7.45;5.18;;;0.90;98.00;;;;;;5032680;28;20430;-70
2020/12/14 07:04:15;;;;;;;8.57;5.85;;;1.00;98.00;;;;;;5033643;28;20337;-69
2020/12/14 07:06:41;;;;;;;10.05;6.63;;;1.00;98.00;;;;;;5025189;28;20132;-69
2020/12/14 07:09:28;;;;;;;11.55;6.90;;;1.10;98.00;;;;;;5034538;28;20117;-69
2020/12/14 07:12:13;;;;;;;10.80;6.90;;;1.00;98.00;;;;;;5034301;28;20034;-70
2020/12/14 07:14:50;;;;;;;10.48;6.55;;;1.00;98.00;;;;;;5033941;28;20040;-69
2020/12/14 07:17:23;;;;;;;9.18;6.03;;;0.90;98.00;;;;;;5031773;28;20057;-69
2020/12/14 07:19:54;;;;;;;9.80;6.57;;;1.00;98.00;;;;;;5038311;28;20027;-69
2020/12/14 07:22:23;;;;;;;10.13;7.20;;;1.00;98.00;;;;;;5037025;28;20031;-69
2020/12/14 07:25:03;;;;;;;8.43;5.60;;;0.90;98.00;;;;;;5037810;28;20053;-70
2020/12/14 07:27:30;;;;;;;10.40;5.95;;;0.70;98.00;;;;;;5037947;28;20075;-69
2020/12/14 07:30:08;;;;;;;10.38;7.22;;;0.70;98.00;;;;;;5037699;28;20026;-69
2020/12/14 07:32:39;;;;;;;11.90;8.10;;;0.60;98.00;;;;;;5036013;28;20063;-69
2020/12/14 07:35:08;;;;;;;16.90;11.45;;;0.50;98.00;;;;;;5037186;28;20418;-70
2020/12/14 07:37:37;;;;;;;20.73;13.10;;;0.60;98.00;;;;;;5037892;28;20029;-69
2020/12/14 07:40:15;;;;;;;16.52;8.55;;;0.60;98.00;;;;;;5037947;28;20026;-69
2020/12/14 07:42:45;;;;;;;16.58;10.80;;;0.70;98.00;;;;;;5036684;28;20059;-69
2020/12/14 07:45:13;;;;;;;19.40;10.82;;;0.70;98.00;;;;;;5037202;28;20104;-69
2020/12/14 07:47:40;;;;;;;17.08;9.90;;;0.70;98.00;;;;;;5036484;28;20044;-68
2020/12/14 07:50:07;;;;;;;13.73;9.13;;;0.70;98.00;;;;;;5037169;28;20029;-68
2020/12/14 07:52:36;;;;;;;12.43;7.57;;;0.70;98.00;;;;;;5037701;28;20044;-69
2020/12/14 07:55:04;;;;;;;14.60;6.85;;;0.70;98.00;;;;;;5037396;28;20022;-68
2020/12/14 07:57:41;;;;;;;8.68;5.85;;;0.70;98.00;;;;;;5036122;28;20025;-69
2020/12/14 08:00:14;;;;;;;8.52;5.30;;;0.70;98.00;;;;;;5037277;28;20446;-69
2020/12/14 08:02:43;;;;;;;10.80;7.60;;;0.70;98.00;;;;;;5036371;28;20033;-70
2020/12/14 08:05:14;;;;;;;12.75;8.02;;;0.70;98.00;;;;;;5037243;28;20064;-70
2020/12/14 08:07:43;;;;;;;10.98;7.10;;;0.70;98.00;;;;;;5035355;28;20156;-69
2020/12/14 08:10:10;;;;;;;11.88;6.03;;;0.80;98.00;;;;;;5037287;28;20057;-69
2020/12/14 08:12:38;;;;;;;9.30;6.75;;;0.80;98.00;;;;;;5036268;28;20135;-69
2020/12/14 08:15:07;;;;;;;13.93;6.53;;;0.80;98.00;;;;;;5037531;28;20361;-69
2020/12/14 08:17:36;;;;;;;14.63;8.27;;;0.80;98.00;;;;;;5035226;28;20751;-69
2020/12/14 08:20:04;;;;;;;13.18;7.93;;;0.90;98.00;;;;;;5036939;28;20021;-69
2020/12/14 08:22:33;;;;;;;10.75;6.70;;;0.90;98.00;;;;;;5036606;28;20146;-69
2020/12/14 08:25:00;;;;;;;12.00;8.00;;;1.10;98.00;;;;;;5022173;28;20028;-69
2020/12/14 08:27:39;;;;;;;11.75;7.85;;;1.20;98.00;;;;;;5035933;28;20040;-69
2020/12/14 08:30:05;;;;;;;13.95;7.43;;;1.50;98.00;;;;;;5036700;28;20037;-69
2020/12/14 08:32:36;;;;;;;9.20;6.53;;;2.10;98.00;;;;;;5033503;28;20048;-70
2020/12/14 08:35:20;;;;;;;13.27;6.50;;;3.30;98.00;;;;;;5036937;28;20131;-70
2020/12/14 08:37:46;;;;;;;10.30;5.00;;;4.30;98.00;;;;;;5035826;28;20030;-69
2020/12/14 08:40:13;;;;;;;11.73;5.88;;;5.40;97.30;;;;;;5035569;28;20034;-69
2020/12/14 08:42:40;;;;;;;8.88;5.70;;;6.70;91.70;;;;;;5036525;28;20033;-70
2020/12/14 08:45:13;;;;;;;9.43;6.00;;;7.20;88.20;;;;;;5035544;28;20017;-70
2020/12/14 08:47:41;;;;;;;10.35;6.70;;;7.50;87.20;;;;;;5035329;28;20030;-70
2020/12/14 08:50:09;;;;;;;10.25;5.60;;;7.90;85.30;;;;;;5036502;28;20048;-70
2020/12/14 08:52:34;;;;;;;7.45;4.60;;;7.70;84.80;;;;;;5016809;28;20038;-70
2020/12/14 08:55:00;;;;;;;8.55;4.68;;;8.10;85.20;;;;;;5034668;28;20041;-69
2020/12/14 08:57:28;;;;;;;7.50;4.32;;;8.50;83.40;;;;;;5036316;28;20017;-70
2020/12/14 09:00:13;;;;;;;6.50;3.67;;;8.80;82.10;;;;;;5036302;28;20083;-70
2020/12/14 09:02:40;;;;;;;6.70;4.13;;;9.30;80.90;;;;;;5034920;28;20103;-70
2020/12/14 09:05:19;;;;;;;5.95;3.08;;;10.10;78.70;;;;;;5036342;28;20033;-70
2020/12/14 09:07:45;;;;;;;7.22;4.20;;;10.10;77.30;;;;;;5033385;28;20139;-69
2020/12/14 09:10:16;;;;;;;7.97;5.03;;;9.10;77.70;;;;;;5036213;28;20105;-68
2020/12/14 09:12:43;;;;;;;12.40;5.40;;;8.70;78.70;;;;;;5035650;28;20041;-68
2020/12/14 09:15:09;;;;;;;7.32;4.20;;;8.70;78.80;;;;;;5036028;28;20029;-69
2020/12/14 09:17:34;;;;;;;7.13;4.30;;;8.80;78.20;;;;;;5034979;28;20035;-68
2020/12/14 09:20:00;;;;;;;10.40;4.70;;;9.10;77.90;;;;;;5036129;28;20029;-68
2020/12/14 09:22:26;;;;;;;8.55;5.10;;;9.50;77.30;;;;;;5035032;28;20017;-68
2020/12/14 09:24:52;;;;;;;7.88;4.78;;;10.00;76.20;;;;;;5033951;28;20109;-69
2020/12/14 09:27:19;;;;;;;7.07;3.97;;;9.90;75.80;;;;;;5033883;28;20314;-68
2020/12/14 09:29:45;;;;;;;6.53;4.00;;;9.00;77.40;;;;;;5035377;28;20056;-68
2020/12/14 09:32:11;;;;;;;7.38;3.88;;;8.20;80.50;;;;;;5034592;28;20025;-69
2020/12/14 09:34:41;;;;;;;5.97;3.25;;;8.10;81.80;;;;;;5035228;28;20133;-69
2020/12/14 09:37:07;;;;;;;6.43;3.15;;;8.20;81.90;;;;;;5035505;28;20033;-69
2020/12/14 09:39:34;;;;;;;5.50;3.05;;;8.50;81.40;;;;;;5035205;28;20029;-69
2020/12/14 09:42:00;;;;;;;5.57;2.78;;;8.60;81.30;;;;;;5035652;28;20025;-69
2020/12/14 09:44:28;;;;;;;5.97;3.20;;;8.90;82.00;;;;;;5034981;28;20029;-69
2020/12/14 09:46:54;;;;;;;6.35;2.53;;;9.80;81.10;;;;;;5034093;28;20055;-69
2020/12/14 09:49:21;;;;;;;5.43;2.65;;;10.70;78.60;;;;;;5035114;28;20385;-69
2020/12/14 09:51:47;;;;;;;4.35;2.60;;;11.70;76.10;;;;;;5034737;28;20083;-69
2020/12/14 09:54:13;;;;;;;5.28;2.70;;;12.50;74.20;;;;;;5035465;28;20021;-69
2020/12/14 09:56:42;;;;;;;5.93;2.90;;;13.00;73.20;;;;;;5034761;28;20029;-69
2020/12/14 09:59:08;;;;;;;5.03;2.55;;;12.40;74.00;;;;;;5035128;28;20540;-69
2020/12/14 10:01:33;;;;;;;5.50;2.92;;;12.90;73.60;;;;;;5033866;28;20025;-69
2020/12/14 10:03:59;;;;;;;6.72;4.13;;;12.90;72.00;;;;;;5035252;28;20025;-69
2020/12/14 10:06:28;;;;;;;14.15;7.90;;;12.50;72.50;;;;;;5034084;28;20026;-69
2020/12/14 10:08:54;;;;;;;12.80;7.88;;;12.20;72.00;;;;;;5035069;28;20040;-69
2020/12/14 10:11:26;;;;;;;5.10;3.15;;;11.60;74.40;;;;;;5034369;28;20033;-69
2020/12/14 10:13:52;;;;;;;6.63;3.30;;;11.40;73.10;;;;;;5034894;28;20025;-69
2020/12/14 10:16:18;;;;;;;6.00;3.03;;;10.10;74.90;;;;;;5033688;28;20402;-69
2020/12/14 10:18:45;;;;;;;5.07;3.08;;;10.40;76.80;;;;;;5034392;28;20507;-69
2020/12/14 10:21:11;;;;;;;7.15;3.90;;;11.00;75.30;;;;;;5034898;28;20029;-69
2020/12/14 10:23:36;;;;;;;6.53;3.25;;;11.60;73.10;;;;;;5033096;28;20252;-69
2020/12/14 10:26:02;;;;;;;5.82;2.80;;;12.10;73.50;;;;;;5033492;28;20033;-69
2020/12/14 10:28:28;;;;;;;5.15;2.83;;;12.30;74.20;;;;;;5034833;28;20030;-69
2020/12/14 10:30:54;;;;;;;5.32;2.60;;;13.10;73.40;;;;;;5033402;28;20156;-69
2020/12/14 10:33:20;;;;;;;4.78;2.40;;;12.80;73.70;;;;;;5035091;28;20033;-69
2020/12/14 10:35:55;;;;;;;5.45;2.10;;;12.50;74.80;;;;;;5034829;28;20025;-69
2020/12/14 10:38:21;;;;;;;3.63;2.03;;;12.50;74.00;;;;;;5033938;28;20024;-69
2020/12/14 10:40:46;;;;;;;4.80;2.00;;;12.90;73.90;;;;;;5034415;28;20337;-69
2020/12/14 10:43:12;;;;;;;5.75;2.42;;;12.80;73.10;;;;;;5034285;28;20018;-69
2020/12/14 10:45:38;;;;;;;4.75;2.17;;;12.90;73.40;;;;;;5033474;28;20103;-69
2020/12/14 10:48:04;;;;;;;5.15;2.35;;;13.20;72.60;;;;;;5034822;28;20130;-69
2020/12/14 10:50:30;;;;;;;4.65;2.30;;;13.50;71.40;;;;;;5034735;28;20057;-68
2020/12/14 10:52:56;;;;;;;8.63;2.50;;;13.40;71.90;;;;;;5035841;28;20045;-70
2020/12/14 10:55:23;;;;;;;5.05;2.65;;;13.10;73.10;;;;;;5038495;28;20026;-70
2020/12/14 10:57:49;;;;;;;5.15;2.20;;;13.20;73.50;;;;;;5038648;28;20338;-69
2020/12/14 11:00:17;;;;;;;5.70;2.85;;;13.50;72.70;;;;;;5038317;28;20040;-69
2020/12/14 11:02:43;;;;;;;6.13;2.75;;;13.40;72.90;;;;;;5037187;28;20037;-70
2020/12/14 11:05:10;;;;;;;6.18;3.08;;;13.50;73.70;;;;;;5038591;28;20033;-69
2020/12/14 11:07:36;;;;;;;5.97;3.67;;;13.40;73.40;;;;;;5038354;28;20334;-69
2020/12/14 11:10:04;;;;;;;5.13;2.90;;;13.30;73.60;;;;;;5038204;28;20033;-70
2020/12/14 11:12:30;;;;;;;5.38;3.00;;;13.80;74.30;;;;;;5038403;28;20029;-69
2020/12/14 11:14:55;;;;;;;5.88;3.35;;;13.90;73.10;;;;;;5038075;28;20025;-69
2020/12/14 11:17:21;;;;;;;5.13;2.83;;;13.80;73.20;;;;;;5035565;28;20029;-69
2020/12/14 11:19:47;;;;;;;6.25;3.63;;;13.30;74.20;;;;;;5037921;28;20033;-69
2020/12/14 11:22:13;;;;;;;6.78;3.38;;;13.20;74.40;;;;;;5037943;28;20025;-69
2020/12/14 11:24:44;;;;;;;6.00;3.28;;;13.20;75.70;;;;;;5037941;28;20422;-69
2020/12/14 11:27:11;;;;;;;4.88;2.53;;;13.50;76.30;;;;;;5038284;28;20040;-69
2020/12/14 11:29:36;;;;;;;5.78;2.65;;;14.00;75.10;;;;;;5037721;28;20083;-69
2020/12/14 11:32:02;;;;;;;4.45;2.47;;;14.10;73.70;;;;;;5036799;28;20030;-69
2020/12/14 11:34:31;;;;;;;6.07;2.50;;;14.20;73.60;;;;;;5036876;28;20032;-69
2020/12/14 11:36:59;;;;;;;5.55;2.88;;;14.30;73.50;;;;;;5037641;28;20422;-69
2020/12/14 11:39:24;;;;;;;4.80;2.45;;;14.10;74.40;;;;;;5037687;28;20112;-69
2020/12/14 11:41:50;;;;;;;5.43;2.35;;;13.80;74.30;;;;;;5035763;28;20238;-69
2020/12/14 11:44:16;;;;;;;9.80;5.70;;;13.50;75.70;;;;;;5036349;28;20120;-69
2020/12/14 11:46:42;;;;;;;10.82;6.40;;;13.10;75.70;;;;;;5036405;28;20025;-69
2020/12/14 11:49:12;;;;;;;9.02;5.45;;;12.80;76.00;;;;;;5037519;28;20187;-69
2020/12/14 11:51:40;;;;;;;8.35;4.95;;;12.30;76.30;;;;;;5037397;28;20434;-69
2020/12/14 11:54:06;;;;;;;8.23;4.88;;;12.00;77.90;;;;;;5037754;28;20029;-69
2020/12/14 11:56:31;;;;;;;8.70;4.75;;;12.10;78.10;;;;;;5037466;28;20092;-69
2020/12/14 11:58:57;;;;;;;12.80;6.03;;;12.30;76.50;;;;;;5037558;28;20509;-69
2020/12/14 12:01:23;;;;;;;9.45;5.57;;;12.60;76.80;;;;;;5035784;28;20033;-69
2020/12/14 12:03:50;;;;;;;11.45;5.90;;;12.20;76.40;;;;;;5035855;28;20080;-68
2020/12/14 12:06:16;;;;;;;9.18;5.72;;;12.10;77.20;;;;;;5036579;28;20025;-69
2020/12/14 12:08:42;;;;;;;9.02;5.45;;;12.20;76.50;;;;;;5037180;28;20083;-68
2020/12/14 12:11:12;;;;;;;16.02;5.82;;;12.20;76.20;;;;;;5037154;28;20367;-69
2020/12/14 12:13:38;;;;;;;10.27;5.78;;;12.10;76.70;;;;;;5036725;28;20072;-69
2020/12/14 12:16:05;;;;;;;11.82;5.78;;;12.10;75.90;;;;;;5034951;28;20025;-69
2020/12/14 12:18:31;;;;;;;13.15;6.40;;;12.30;76.00;;;;;;5036894;28;20033;-69
2020/12/14 12:20:56;;;;;;;9.20;6.43;;;11.90;76.10;;;;;;5037163;28;20147;-69
2020/12/14 12:23:22;;;;;;;10.73;6.30;;;11.20;77.90;;;;;;5036747;28;20056;-69
2020/12/14 12:25:48;;;;;;;10.02;6.43;;;11.20;78.90;;;;;;5036867;28;20410;-69
2020/12/14 12:28:14;;;;;;;10.10;6.43;;;11.50;78.40;;;;;;5036894;28;20029;-69
2020/12/14 12:30:39;;;;;;;10.77;6.70;;;11.60;77.20;;;;;;5035922;28;20022;-69
2020/12/14 12:33:05;;;;;;;12.43;6.72;;;11.50;77.70;;;;;;5035893;28;20078;-69
2020/12/14 12:35:33;;;;;;;10.90;6.00;;;11.60;77.70;;;;;;5036687;28;20029;-69
2020/12/14 12:37:59;;;;;;;15.77;6.78;;;11.30;78.70;;;;;;5036443;28;20025;-69
2020/12/14 12:40:24;;;;;;;9.23;6.32;;;11.20;79.20;;;;;;5036266;28;20025;-69
2020/12/14 12:42:50;;;;;;;9.43;5.63;;;11.30;79.90;;;;;;5036586;28;20025;-70
2020/12/14 12:45:16;;;;;;;11.27;6.45;;;11.10;80.60;;;;;;5036481;28;20120;-69
2020/12/14 12:47:42;;;;;;;8.95;5.55;;;11.10;80.10;;;;;;5035328;28;20112;-69
2020/12/14 12:50:11;;;;;;;9.68;5.30;;;11.30;80.90;;;;;;5036818;28;20436;-69
2020/12/14 12:52:36;;;;;;;8.75;5.30;;;11.50;80.20;;;;;;5036267;28;20037;-69
2020/12/14 12:55:02;;;;;;;6.95;3.38;;;11.90;80.10;;;;;;5035193;28;20474;-69